»·PEaware :: N600MA KSAN-KPSP

N600MA :: KSAN-KPSP

FLIGHT INFORMATION

Flight Status: Arrived
Operator: Privately registered:
United States
More flights under this callsign
Pilot: Bruce B. (6887)
Aircraft: BEECH AIRCRAFT BONANZA
(BE36)
More flights by this aircraft type
Origin: KSAN San Diego Intl-Lindbergh
United States
Destination: KPSP Palm Springs Intl
United States
More flights between these airports :: More routes between these airports
Route: TRM
File this flight plan on PilotEdge
Remarks:
Altitude:
(Current/Filed)
9,500ft
Speed:
(Current/Filed)
160kts
Departed: 28-Sep-17 08:42 AM
Arrived: 28-Sep-17 09:32 AM
Distance/Time
Traveled:
74nm/0:50
Distance/Time
To Go:
Arrived

Flight Plot

Page will automatically refresh every two minutes.

Flight plan parsing failed; only flown route is shown


Map Options




Map Legend


Flown Route
Filed Route
Departure Airport
Arrival Airport
Navaid (VOR, NDB)
Fix

Horizontal Profiles

Position Reports

Time Latitude Longitude Heading Altitude Ground
Speed
28-Sep-17 08:36 32.732023 -117.176515 191 19ft 0kts
28-Sep-17 08:37 32.732022 -117.176516 191 19ft 0kts
28-Sep-17 08:38 32.732020 -117.176516 191 19ft 0kts
28-Sep-17 08:39 32.732018 -117.176516 191 19ft 0kts
28-Sep-17 08:40 32.732016 -117.176517 191 19ft 0kts
28-Sep-17 08:41 32.732015 -117.176517 191 19ft 0kts
28-Sep-17 08:42 32.732013 -117.176518 191 19ft 0kts
28-Sep-17 08:43 32.731008 -117.175517 158 19ft 0kts
28-Sep-17 08:44 32.731007 -117.175517 158 19ft 0kts
28-Sep-17 08:45 32.730221 -117.175815 284 19ft 6kts
28-Sep-17 08:46 32.740225 -117.200942 323 635ft 119kts
28-Sep-17 08:47 32.764116 -117.223745 319 1054ft 144kts
28-Sep-17 08:48 32.801297 -117.261823 322 1158ft 150kts
28-Sep-17 08:49 32.828099 -117.286364 320 1468ft 154kts
28-Sep-17 08:50 32.861598 -117.267011 113 1673ft 140kts
28-Sep-17 08:51 32.835506 -117.242082 142 1955ft 149kts
28-Sep-17 08:52 32.806536 -117.210683 129 2917ft 132kts
28-Sep-17 08:53 32.793811 -117.174340 79 3893ft 137kts
28-Sep-17 08:54 32.804692 -117.124896 63 4007ft 169kts
28-Sep-17 08:55 32.823215 -117.073756 71 3854ft 169kts
28-Sep-17 08:56 32.832453 -117.022771 81 4095ft 155kts
28-Sep-17 08:57 32.838341 -116.970547 78 4022ft 161kts
28-Sep-17 08:58 32.846177 -116.918505 76 4042ft 160kts
28-Sep-17 08:59 32.858615 -116.876377 70 5187ft 123kts
28-Sep-17 09:00 32.875301 -116.839106 40 5977ft 126kts
28-Sep-17 09:01 32.907146 -116.823701 23 6894ft 109kts
28-Sep-17 09:02 32.933878 -116.809855 29 7854ft 102kts
28-Sep-17 09:03 32.958512 -116.788924 39 8465ft 110kts
28-Sep-17 09:04 32.984482 -116.762667 47 8936ft 129kts
28-Sep-17 09:05 33.010341 -116.733883 48 9615ft 123kts
28-Sep-17 09:06 33.033507 -116.697631 49 9789ft 148kts
28-Sep-17 09:07 33.062060 -116.659569 48 9527ft 160kts
28-Sep-17 09:08 33.091109 -116.621059 49 9430ft 141kts
28-Sep-17 09:09 33.111994 -116.581513 59 9574ft 150kts
28-Sep-17 09:10 33.132401 -116.538372 60 9520ft 154kts
28-Sep-17 09:11 33.151375 -116.494281 65 9497ft 148kts
28-Sep-17 09:12 33.170122 -116.451536 59 9446ft 143kts
28-Sep-17 09:13 33.191240 -116.410381 56 9442ft 150kts
28-Sep-17 09:14 33.212543 -116.369413 56 9441ft 140kts
28-Sep-17 09:15 33.233073 -116.329984 56 9404ft 141kts
28-Sep-17 09:16 33.255182 -116.287717 55 8749ft 155kts
28-Sep-17 09:17 33.284251 -116.247032 47 8089ft 168kts
28-Sep-17 09:18 33.314548 -116.206222 47 7486ft 158kts
28-Sep-17 09:19 33.341806 -116.169417 47 7468ft 142kts
28-Sep-17 09:20 33.369330 -116.135356 32 7459ft 144kts
28-Sep-17 09:21 33.405691 -116.116628 18 7109ft 146kts
28-Sep-17 09:22 33.445704 -116.122161 336 6454ft 156kts
28-Sep-17 09:23 33.485558 -116.146918 335 5791ft 165kts
28-Sep-17 09:24 33.525960 -116.171910 335 5123ft 165kts
28-Sep-17 09:25 33.566718 -116.196451 339 4406ft 165kts
28-Sep-17 09:26 33.606270 -116.222979 327 3724ft 165kts
28-Sep-17 09:27 33.642723 -116.252920 326 3445ft 152kts
28-Sep-17 09:28 33.675849 -116.284964 316 3028ft 164kts
28-Sep-17 09:29 33.706990 -116.323795 315 2486ft 164kts
28-Sep-17 09:30 33.731111 -116.364420 303 2352ft 148kts
28-Sep-17 09:31 33.753382 -116.404648 305 2342ft 138kts
28-Sep-17 09:32 33.773531 -116.441836 303 2060ft 107kts
28-Sep-17 09:33 33.788118 -116.470119 320 1639ft 91kts
28-Sep-17 09:34 33.808151 -116.488450 323 844ft 84kts
28-Sep-17 09:35 33.826737 -116.505048 324 471ft 76kts
28-Sep-17 09:36 33.832555 -116.511879 194 429ft 3kts
28-Sep-17 09:37 33.830515 -116.510577 142 429ft 21kts
28-Sep-17 09:38 33.827845 -116.509189 179 429ft 0kts
28-Sep-17 09:39 33.827845 -116.509189 179 429ft 0kts

Navigation Log

Ident Type
Flight plan parsing failed, navigation log unavailable